Time;durP1;ratioP1;P1;durP2;ratioP2;P2;SDS_P1;SDS_P2;PMS_P1;PMS_P2;Temp;Humidity;BMP_temperature;BMP_pressure;BME280_temperature;BME280_humidity;BME280_pressure;Samples;Min_cycle;Max_cycle;Signal;HPM_P1;HPM_P2
2023/06/27 00:00:15;;;;;;;;;;;;;;;20.35;100.00;99433.03;5092789;28;787;-56
2023/06/27 00:02:42;;;;;;;;;;;;;;;20.28;100.00;99431.38;5092380;28;880;-56
2023/06/27 00:05:09;;;;;;;;;;;;;;;20.26;100.00;99424.69;5092346;28;882;-56
2023/06/27 00:07:38;;;;;;;;;;;;;;;20.18;100.00;99422.25;5092317;28;810;-56
2023/06/27 00:10:05;;;;;;;;;;;;;;;20.13;100.00;99431.31;5092248;28;917;-56
2023/06/27 00:12:32;;;;;;;;;;;;;;;20.06;100.00;99419.69;5092119;28;1403;-56
2023/06/27 00:14:58;;;;;;;;;;;;;;;20.00;100.00;99413.97;5092059;28;1976;-56
2023/06/27 00:17:25;;;;;;;;;;;;;;;19.95;100.00;99414.59;5092236;28;841;-56
2023/06/27 00:19:58;;;;;;;;;;;;;;;19.89;100.00;99416.53;5092080;28;810;-56
2023/06/27 00:22:26;;;;;;;;;;;;;;;19.88;100.00;99418.53;5092255;28;803;-56
2023/06/27 00:24:53;;;;;;;;;;;;;;;19.86;100.00;99421.03;5092357;28;862;-56
2023/06/27 00:27:21;;;;;;;;;;;;;;;19.86;100.00;99417.47;5091983;28;892;-56
2023/06/27 00:29:48;;;;;;;;;;;;;;;19.81;100.00;99418.13;5091997;28;893;-56
2023/06/27 00:32:15;;;;;;;;;;;;;;;19.84;100.00;99419.97;5091756;28;1092;-56
2023/06/27 00:34:42;;;;;;;;;;;;;;;19.79;100.00;99413.75;5091770;28;2233;-56
2023/06/27 00:37:09;;;;;;;;;;;;;;;19.87;100.00;99405.00;5091842;28;798;-56
2023/06/27 00:39:36;;;;;;;;;;;;;;;19.76;100.00;99378.25;5091847;28;834;-56
2023/06/27 00:42:03;;;;;;;;;;;;;;;19.88;100.00;99410.13;5091817;28;795;-57
2023/06/27 00:44:30;;;;;;;;;;;;;;;19.86;100.00;99401.41;5091756;28;853;-56
2023/06/27 00:46:57;;;;;;;;;;;;;;;19.82;100.00;99405.63;5091624;28;822;-56
2023/06/27 00:49:23;;;;;;;;;;;;;;;19.73;100.00;99401.63;5091669;28;803;-56
2023/06/27 00:51:53;;;;;;;;;;;;;;;19.79;100.00;99402.53;5091848;28;837;-56
2023/06/27 00:54:20;;;;;;;;;;;;;;;19.86;100.00;99407.00;5091590;28;838;-56
2023/06/27 00:56:49;;;;;;;;;;;;;;;19.86;100.00;99397.81;5091497;28;1885;-56
2023/06/27 00:59:16;;;;;;;;;;;;;;;19.85;100.00;99397.06;5091609;28;819;-56
2023/06/27 01:01:45;;;;;;;;;;;;;;;19.85;100.00;99397.06;5091539;28;819;-56
2023/06/27 01:04:12;;;;;;;;;;;;;;;19.84;100.00;99397.53;5091552;28;818;-56
2023/06/27 01:06:49;;;;;;;;;;;;;;;19.84;100.00;99391.91;5091897;28;830;-56
2023/06/27 01:09:24;;;;;;;;;;;;;;;19.88;100.00;99392.53;5095732;28;904;-56
2023/06/27 01:11:54;;;;;;;;;;;;;;;19.88;100.00;99396.09;5077329;28;1491;-57
2023/06/27 01:14:23;;;;;;;;;;;;;;;19.88;100.00;99390.47;5095660;28;842;-57
2023/06/27 01:16:51;;;;;;;;;;;;;;;19.93;100.00;99389.06;5095671;28;1985;-56
2023/06/27 01:19:21;;;;;;;;;;;;;;;19.94;100.00;99387.81;5095578;28;806;-56
2023/06/27 01:21:52;;;;;;;;;;;;;;;19.92;100.00;99385.47;5095528;28;821;-56
2023/06/27 01:24:19;;;;;;;;;;;;;;;19.88;100.00;99396.09;5095389;28;826;-56
2023/06/27 01:26:47;;;;;;;;;;;;;;;19.81;100.00;99393.66;5077156;28;1254;-56
2023/06/27 01:29:13;;;;;;;;;;;;;;;19.79;100.00;99387.75;5095407;28;830;-56
2023/06/27 01:31:44;;;;;;;;;;;;;;;19.76;100.00;99388.72;5095491;28;837;-56
2023/06/27 01:34:18;;;;;;;;;;;;;;;19.70;100.00;99379.41;5095588;28;870;-56
2023/06/27 01:37:08;;;;;;;;;;;;;;;19.67;100.00;99386.69;5095218;28;1894;-56
2023/06/27 01:39:54;;;;;;;;;;;;;;;19.58;100.00;99386.72;5087397;28;1250;-56
2023/06/27 01:42:26;;;;;;;;;;;;;;;19.51;100.00;99378.69;5095093;28;858;-56
2023/06/27 01:44:54;;;;;;;;;;;;;;;19.50;100.00;99380.72;5095109;28;921;-57
2023/06/27 01:47:22;;;;;;;;;;;;;;;19.46;100.00;99385.72;5095049;28;861;-56
2023/06/27 01:49:49;;;;;;;;;;;;;;;19.45;100.00;99384.13;5094896;28;830;-56
2023/06/27 01:52:19;;;;;;;;;;;;;;;19.47;100.00;99395.66;5095020;28;802;-56
2023/06/27 01:54:45;;;;;;;;;;;;;;;19.46;100.00;99391.31;5095027;28;1965;-56
2023/06/27 01:57:12;;;;;;;;;;;;;;;19.48;100.00;99391.63;5094821;28;846;-56
2023/06/27 01:59:38;;;;;;;;;;;;;;;19.45;100.00;99388.97;5094825;28;892;-56
2023/06/27 02:02:05;;;;;;;;;;;;;;;19.42;100.00;99390.72;5076566;28;1184;-56
2023/06/27 02:04:33;;;;;;;;;;;;;;;19.42;100.00;99392.75;5094644;28;833;-56
2023/06/27 02:06:59;;;;;;;;;;;;;;;19.42;100.00;99404.72;5094650;28;853;-56
2023/06/27 02:09:26;;;;;;;;;;;;;;;19.41;100.00;99393.97;5094600;28;1130;-56
2023/06/27 02:11:54;;;;;;;;;;;;;;;19.36;100.00;99398.97;5094558;28;1413;-56
2023/06/27 02:14:21;;;;;;;;;;;;;;;19.33;100.00;99393.53;5094539;28;861;-56
2023/06/27 02:16:47;;;;;;;;;;;;;;;19.29;100.00;99393.72;5094319;28;1897;-56
2023/06/27 02:19:14;;;;;;;;;;;;;;;19.30;100.00;99400.09;5094325;28;830;-56
2023/06/27 02:21:41;;;;;;;;;;;;;;;19.29;100.00;99398.53;5076133;28;898;-56
2023/06/27 02:24:08;;;;;;;;;;;;;;;19.23;100.00;99395.59;5094247;28;858;-56
2023/06/27 02:26:35;;;;;;;;;;;;;;;19.19;100.00;99400.59;5094274;28;826;-56
2023/06/27 02:29:02;;;;;;;;;;;;;;;19.19;100.00;99392.19;5094228;28;814;-56
2023/06/27 02:31:29;;;;;;;;;;;;;;;19.22;100.00;99390.47;5094208;28;854;-56
2023/06/27 02:33:56;;;;;;;;;;;;;;;19.21;100.00;99395.28;5094025;28;818;-56
2023/06/27 02:36:27;;;;;;;;;;;;;;;19.21;100.00;99402.94;5093948;28;1948;-56
2023/06/27 02:38:56;;;;;;;;;;;;;;;19.22;100.00;99398.88;5094069;28;881;-56
2023/06/27 02:41:23;;;;;;;;;;;;;;;19.19;100.00;99400.59;5094217;28;810;-56
2023/06/27 02:43:50;;;;;;;;;;;;;;;19.17;100.00;99398.25;5093978;28;845;-56
2023/06/27 02:46:17;;;;;;;;;;;;;;;19.16;100.00;99398.72;5093977;28;814;-57
2023/06/27 02:48:44;;;;;;;;;;;;;;;19.16;100.00;99404.31;5075828;28;1317;-56
2023/06/27 02:51:11;;;;;;;;;;;;;;;19.23;100.00;99406.03;5093854;28;848;-56
2023/06/27 02:53:38;;;;;;;;;;;;;;;19.35;100.00;99400.22;5093841;28;810;-56
2023/06/27 02:56:05;;;;;;;;;;;;;;;19.37;100.00;99403.34;5075625;28;1902;-56
2023/06/27 02:58:32;;;;;;;;;;;;;;;19.35;100.00;99402.22;5094068;28;790;-56
2023/06/27 03:00:59;;;;;;;;;;;;;;;19.36;100.00;99409.41;5093842;28;805;-56
2023/06/27 03:03:26;;;;;;;;;;;;;;;19.36;100.00;99396.16;5093796;28;916;-56
2023/06/27 03:05:53;;;;;;;;;;;;;;;19.37;100.00;99400.53;5093709;28;875;-56
2023/06/27 03:08:20;;;;;;;;;;;;;;;19.43;100.00;99405.50;5093923;28;830;-56
2023/06/27 03:10:47;;;;;;;;;;;;;;;19.49;100.00;99400.78;5075402;28;973;-56
2023/06/27 03:13:14;;;;;;;;;;;;;;;19.57;100.00;99411.19;5093473;28;1194;-56
2023/06/27 03:15:41;;;;;;;;;;;;;;;19.59;100.00;99417.09;5093504;28;1914;-56
2023/06/27 03:18:07;;;;;;;;;;;;;;;19.65;100.00;99411.63;5093675;28;798;-56
2023/06/27 03:20:34;;;;;;;;;;;;;;;19.70;100.00;99422.22;5093319;28;912;-56
2023/06/27 03:23:01;;;;;;;;;;;;;;;19.81;100.00;99415.31;5093301;28;822;-56
2023/06/27 03:25:28;;;;;;;;;;;;;;;19.90;100.00;99424.44;5093405;28;811;-56
2023/06/27 03:27:55;;;;;;;;;;;;;;;19.96;100.00;99419.72;5093375;28;1295;-56
2023/06/27 03:30:22;;;;;;;;;;;;;;;20.01;100.00;99425.94;5092838;28;841;-56
2023/06/27 03:32:49;;;;;;;;;;;;;;;20.05;100.00;99426.53;5093368;28;842;-56
2023/06/27 03:35:16;;;;;;;;;;;;;;;20.10;100.00;99425.88;5093221;28;1886;-56
2023/06/27 03:37:43;;;;;;;;;;;;;;;20.15;100.00;99433.66;5093115;28;840;-56
2023/06/27 03:40:10;;;;;;;;;;;;;;;20.23;100.00;99425.63;5093656;28;857;-56
2023/06/27 03:42:37;;;;;;;;;;;;;;;20.29;100.00;99430.13;5093306;28;771;-56
2023/06/27 03:45:04;;;;;;;;;;;;;;;20.36;100.00;99429.00;5093252;28;807;-56
2023/06/27 03:47:32;;;;;;;;;;;;;;;20.42;100.00;99435.50;5093193;28;806;-56
2023/06/27 03:49:59;;;;;;;;;;;;;;;20.49;100.00;99431.53;5092913;28;837;-56
2023/06/27 03:52:26;;;;;;;;;;;;;;;20.59;100.00;99427.44;5092731;28;1016;-56
2023/06/27 03:54:53;;;;;;;;;;;;;;;20.71;100.00;99434.03;5074483;28;1886;-56
2023/06/27 03:57:19;;;;;;;;;;;;;;;20.79;100.00;99438.03;5092786;28;946;-56
2023/06/27 03:59:47;;;;;;;;;;;;;;;20.98;100.00;99436.59;5092831;28;815;-57
2023/06/27 04:02:14;;;;;;;;;;;;;;;21.15;100.00;99442.50;5074503;28;1298;-56
2023/06/27 04:04:41;;;;;;;;;;;;;;;21.25;100.00;99436.78;5092619;28;869;-56
2023/06/27 04:07:08;;;;;;;;;;;;;;;21.45;100.00;99436.13;5092939;28;942;-56
2023/06/27 04:09:35;;;;;;;;;;;;;;;21.66;100.00;99434.13;5092363;28;881;-56
2023/06/27 04:12:01;;;;;;;;;;;;;;;21.70;100.00;99441.13;5092387;28;1242;-56
2023/06/27 04:14:29;;;;;;;;;;;;;;;21.74;100.00;99441.72;5092622;28;824;-56
2023/06/27 04:16:57;;;;;;;;;;;;;;;21.81;100.00;99446.91;5092173;28;1913;-56
2023/06/27 04:19:23;;;;;;;;;;;;;;;21.90;100.00;99440.38;5092217;28;870;-56
2023/06/27 04:21:50;;;;;;;;;;;;;;;22.02;100.00;99442.09;5092278;28;857;-56
2023/06/27 04:24:17;;;;;;;;;;;;;;;22.15;100.00;99449.44;5092187;28;874;-56
2023/06/27 04:26:44;;;;;;;;;;;;;;;22.24;100.00;99446.50;5074121;28;1295;-56
2023/06/27 04:29:11;;;;;;;;;;;;;;;22.38;100.00;99448.50;5092290;28;905;-55
2023/06/27 04:31:36;;;;;;;;;;;;;;;22.59;100.00;99448.47;5092488;28;925;-56
2023/06/27 04:34:03;;;;;;;;;;;;;;;22.74;100.00;99448.38;5092513;28;815;-56
2023/06/27 04:36:30;;;;;;;;;;;;;;;22.83;100.00;99439.78;5091807;28;1948;-56
2023/06/27 04:38:58;;;;;;;;;;;;;;;22.91;100.00;99448.56;5092603;28;802;-55
2023/06/27 04:41:28;;;;;;;;;;;;;;;23.00;100.00;99439.94;5091482;28;854;-56
2023/06/27 04:43:57;;;;;;;;;;;;;;;23.10;100.00;99446.97;5091719;28;938;-55
2023/06/27 04:46:27;;;;;;;;;;;;;;;23.31;100.00;99444.88;5091785;28;849;-56
2023/06/27 04:48:56;;;;;;;;;;;;;;;23.47;100.00;99449.13;5091735;28;795;-55
2023/06/27 04:51:26;;;;;;;;;;;;;;;23.61;100.00;99451.00;5091715;28;802;-56
2023/06/27 04:53:53;;;;;;;;;;;;;;;23.77;100.00;99458.09;5091735;28;864;-54
2023/06/27 04:56:21;;;;;;;;;;;;;;;23.87;100.00;99455.06;5091456;28;1943;-56
2023/06/27 04:58:47;;;;;;;;;;;;;;;23.92;100.00;99448.66;5091624;28;857;-56
2023/06/27 05:01:14;;;;;;;;;;;;;;;23.97;100.00;99456.41;5091635;28;806;-55
2023/06/27 05:03:41;;;;;;;;;;;;;;;24.03;100.00;99451.59;5091548;28;917;-55
2023/06/27 05:06:08;;;;;;;;;;;;;;;24.12;100.00;99454.19;5091623;28;802;-55
2023/06/27 05:08:36;;;;;;;;;;;;;;;24.16;100.00;99454.72;5091490;28;790;-54
2023/06/27 05:11:04;;;;;;;;;;;;;;;24.26;100.00;99458.13;5091873;28;958;-55
2023/06/27 05:13:31;;;;;;;;;;;;;;;24.36;100.00;99464.31;5091280;28;1440;-54
2023/06/27 05:15:57;;;;;;;;;;;;;;;24.36;100.00;99467.13;5091386;28;1914;-55
2023/06/27 05:18:24;;;;;;;;;;;;;;;24.46;100.00;99465.66;5091457;28;837;-55
2023/06/27 05:20:52;;;;;;;;;;;;;;;24.67;100.00;99462.69;5091409;28;793;-54
2023/06/27 05:23:19;;;;;;;;;;;;;;;25.05;100.00;99473.31;5091406;28;908;-53
2023/06/27 05:25:47;;;;;;;;;;;;;;;25.24;100.00;99464.34;5091314;28;857;-56
2023/06/27 05:28:14;;;;;;;;;;;;;;;25.18;100.00;99469.22;5091386;28;837;-55
2023/06/27 05:30:41;;;;;;;;;;;;;;;25.17;100.00;99467.66;5091260;28;880;-55
2023/06/27 05:33:08;;;;;;;;;;;;;;;25.32;100.00;99468.22;5091301;28;865;-55
2023/06/27 05:35:35;;;;;;;;;;;;;;;25.51;100.00;99470.56;5091140;28;1948;-56
2023/06/27 05:38:02;;;;;;;;;;;;;;;25.52;100.00;99467.22;5091470;28;841;-54
2023/06/27 05:40:29;;;;;;;;;;;;;;;25.67;100.00;99470.56;5091272;28;865;-54
2023/06/27 05:42:56;;;;;;;;;;;;;;;25.65;100.00;99473.13;5091183;28;814;-56
2023/06/27 05:45:23;;;;;;;;;;;;;;;25.71;100.00;99464.63;5091368;28;894;-56
2023/06/27 05:47:50;;;;;;;;;;;;;;;26.06;100.00;99463.31;5091342;28;818;-55
2023/06/27 05:50:17;;;;;;;;;;;;;;;26.33;98.72;99469.41;5091171;28;857;-55
2023/06/27 05:52:44;;;;;;;;;;;;;;;26.64;98.29;99463.38;5091019;28;877;-56
2023/06/27 05:55:11;;;;;;;;;;;;;;;26.73;98.15;99470.03;5094865;28;1961;-56
2023/06/27 05:57:38;;;;;;;;;;;;;;;26.68;99.69;99461.03;5094791;28;822;-55
2023/06/27 06:00:10;;;;;;;;;;;;;;;26.77;96.78;99462.78;5076630;28;1365;-55
2023/06/27 06:02:38;;;;;;;;;;;;;;;26.75;93.91;99465.38;5094896;28;878;-56
2023/06/27 06:05:05;;;;;;;;;;;;;;;26.84;93.20;99461.47;5095223;28;854;-56
2023/06/27 06:07:32;;;;;;;;;;;;;;;27.07;94.88;99462.09;5094927;28;865;-55
2023/06/27 06:09:59;;;;;;;;;;;;;;;27.64;94.61;99465.31;5094573;28;913;-55
2023/06/27 06:12:26;;;;;;;;;;;;;;;28.05;89.04;99462.34;5094562;28;1341;-55
2023/06/27 06:14:53;;;;;;;;;;;;;;;28.44;83.39;99472.53;5094771;28;1917;-55
2023/06/27 06:17:20;;;;;;;;;;;;;;;28.58;81.97;99459.19;5094699;28;798;-54
2023/06/27 06:19:47;;;;;;;;;;;;;;;28.99;77.82;99457.34;5094527;28;902;-56
2023/06/27 06:22:13;;;;;;;;;;;;;;;29.32;77.12;99458.94;5094432;28;882;-56
2023/06/27 06:24:41;;;;;;;;;;;;;;;29.66;71.00;99459.13;5094579;28;889;-54
2023/06/27 06:27:08;;;;;;;;;;;;;;;30.22;66.42;99448.78;5094451;28;881;-55
2023/06/27 06:29:35;;;;;;;;;;;;;;;30.90;60.81;99450.28;5094351;28;806;-56
2023/06/27 06:32:03;;;;;;;;;;;;;;;31.53;58.47;99465.38;5094580;28;814;-55
2023/06/27 06:34:30;;;;;;;;;;;;;;;31.83;56.29;99461.25;5094266;28;818;-55
2023/06/27 06:36:56;;;;;;;;;;;;;;;31.91;53.37;99470.63;5094189;28;1906;-55
2023/06/27 06:39:24;;;;;;;;;;;;;;;31.91;54.06;99467.78;5094225;28;881;-55
2023/06/27 06:41:51;;;;;;;;;;;;;;;31.79;53.90;99448.63;5094062;28;830;-54
2023/06/27 06:44:18;;;;;;;;;;;;;;;31.68;52.79;99466.84;5094070;28;861;-56
2023/06/27 06:46:45;;;;;;;;;;;;;;;31.25;54.70;99468.13;5093994;28;846;-54
2023/06/27 06:49:12;;;;;;;;;;;;;;;31.84;54.45;99470.59;5093869;28;940;-55
2023/06/27 06:51:39;;;;;;;;;;;;;;;32.17;53.74;99466.06;5093776;28;834;-54
2023/06/27 06:54:06;;;;;;;;;;;;;;;32.41;53.43;99476.34;5093721;28;814;-55
2023/06/27 06:56:33;;;;;;;;;;;;;;;32.43;53.42;99478.59;5093673;28;1877;-55
2023/06/27 06:59:00;;;;;;;;;;;;;;;32.52;52.02;99478.09;5093850;28;818;-55
2023/06/27 07:01:28;;;;;;;;;;;;;;;32.72;52.03;99471.53;5094284;28;771;-55
2023/06/27 07:03:54;;;;;;;;;;;;;;;32.43;50.75;99478.59;5093616;28;877;-54
2023/06/27 07:06:21;;;;;;;;;;;;;;;32.76;48.96;99476.88;5092790;28;1003;-55
2023/06/27 07:08:48;;;;;;;;;;;;;;;33.48;47.45;99480.88;5093516;28;857;-54
2023/06/27 07:11:15;;;;;;;;;;;;;;;33.57;42.30;99486.06;5093600;28;1385;-56
2023/06/27 07:13:42;;;;;;;;;;;;;;;33.78;41.11;99480.19;5093486;28;814;-55
2023/06/27 07:16:10;;;;;;;;;;;;;;;34.06;38.67;99487.03;5093321;28;1909;-56
2023/06/27 07:18:37;;;;;;;;;;;;;;;34.56;38.26;99484.44;5093334;28;806;-56
2023/06/27 07:21:04;;;;;;;;;;;;;;;34.33;36.57;99479.56;5093225;28;928;-56
2023/06/27 07:23:31;;;;;;;;;;;;;;;34.55;37.37;99488.66;5093201;28;892;-56
2023/06/27 07:25:58;;;;;;;;;;;;;;;35.07;36.67;99486.16;5093524;28;782;-56
2023/06/27 07:28:25;;;;;;;;;;;;;;;34.50;35.97;99483.88;5093160;28;842;-57
2023/06/27 07:30:52;;;;;;;;;;;;;;;34.10;36.58;99487.41;5093033;28;826;-56
2023/06/27 07:33:19;;;;;;;;;;;;;;;34.57;36.48;99495.34;5093053;28;818;-56
2023/06/27 07:35:46;;;;;;;;;;;;;;;35.25;36.57;99489.91;5092918;28;1932;-56
2023/06/27 07:38:16;;;;;;;;;;;;;;;36.15;35.98;99494.78;5093192;28;857;-56
2023/06/27 07:40:43;;;;;;;;;;;;;;;36.98;34.20;99496.53;5092942;28;834;-56
2023/06/27 07:43:10;;;;;;;;;;;;;;;37.09;30.57;99495.22;5092886;28;867;-57
2023/06/27 07:45:37;;;;;;;;;;;;;;;36.38;28.86;99503.16;5092835;28;825;-56
2023/06/27 07:48:05;;;;;;;;;;;;;;;35.71;29.76;99494.56;5092762;28;798;-56
2023/06/27 07:50:31;;;;;;;;;;;;;;;35.84;30.20;99494.25;5092555;28;854;-57
2023/06/27 07:52:58;;;;;;;;;;;;;;;36.08;30.03;99494.81;5092615;28;862;-56
2023/06/27 07:55:25;;;;;;;;;;;;;;;35.80;29.92;99496.78;5074327;28;1931;-56
2023/06/27 07:57:52;;;;;;;;;;;;;;;35.53;30.11;99500.25;5092528;28;857;-56
2023/06/27 08:00:19;;;;;;;;;;;;;;;35.66;30.04;99495.59;5092560;28;1019;-56
2023/06/27 08:02:46;;;;;;;;;;;;;;;35.54;28.73;99496.00;5092369;28;925;-56
2023/06/27 08:05:12;;;;;;;;;;;;;;;35.14;29.71;99499.75;5092422;28;898;-54
2023/06/27 08:07:39;;;;;;;;;;;;;;;35.29;30.09;99498.09;5092437;28;818;-55
2023/06/27 08:10:07;;;;;;;;;;;;;;;35.61;29.01;99494.41;5092367;28;945;-55
2023/06/27 08:12:34;;;;;;;;;;;;;;;35.79;28.85;99498.16;5092049;28;1281;-55
2023/06/27 08:15:01;;;;;;;;;;;;;;;35.41;29.44;99504.91;5092214;28;1913;-56
2023/06/27 08:17:27;;;;;;;;;;;;;;;35.04;30.09;99503.78;5092057;28;855;-55
2023/06/27 08:19:55;;;;;;;;;;;;;;;35.51;29.75;99502.94;5092105;28;861;-54
2023/06/27 08:22:21;;;;;;;;;;;;;;;35.79;29.73;99501.03;5092164;28;838;-55
2023/06/27 08:24:48;;;;;;;;;;;;;;;35.53;29.70;99505.22;5092160;28;861;-55
2023/06/27 08:27:14;;;;;;;;;;;;;;;35.06;29.49;99501.06;5092062;28;810;-55
2023/06/27 08:29:42;;;;;;;;;;;;;;;34.69;30.45;99500.69;5092014;28;857;-55
2023/06/27 08:32:09;;;;;;;;;;;;;;;35.14;30.12;99501.81;5092004;28;795;-56
2023/06/27 08:34:38;;;;;;;;;;;;;;;35.47;30.20;99498.97;5091981;28;803;-54
2023/06/27 08:37:05;;;;;;;;;;;;;;;35.76;29.36;99505.06;5091858;28;1940;-55
2023/06/27 08:39:32;;;;;;;;;;;;;;;34.81;29.32;99504.66;5091859;28;858;-55
2023/06/27 08:42:01;;;;;;;;;;;;;;;34.91;30.35;99501.91;5091799;28;941;-54
2023/06/27 08:44:28;;;;;;;;;;;;;;;34.63;29.89;99498.03;5091720;28;875;-55
2023/06/27 08:46:57;;;;;;;;;;;;;;;33.97;31.12;99499.84;5091838;28;810;-56
2023/06/27 08:49:26;;;;;;;;;;;;;;;33.84;31.13;99503.69;5091624;28;841;-55
2023/06/27 08:51:56;;;;;;;;;;;;;;;33.91;31.26;99493.53;5091695;28;826;-55
2023/06/27 08:54:27;;;;;;;;;;;;;;;34.56;30.88;99490.19;5091605;28;945;-56
2023/06/27 08:56:54;;;;;;;;;;;;;;;34.55;30.14;99492.28;5092200;28;1885;-55
2023/06/27 08:59:22;;;;;;;;;;;;;;;34.17;30.99;99493.16;5091631;28;830;-55
2023/06/27 09:01:50;;;;;;;;;;;;;;;33.96;30.89;99492.56;5092211;28;759;-55
2023/06/27 09:04:17;;;;;;;;;;;;;;;33.74;31.42;99491.25;5091729;28;909;-54
2023/06/27 09:06:46;;;;;;;;;;;;;;;34.27;32.05;99493.34;5091631;28;822;-56
2023/06/27 09:09:15;;;;;;;;;;;;;;;33.94;31.95;99496.00;5091757;28;936;-55
2023/06/27 09:11:42;;;;;;;;;;;;;;;34.07;32.44;99477.84;5091623;28;1217;-55
2023/06/27 09:14:09;;;;;;;;;;;;;;;34.31;31.56;99479.38;5091439;28;799;-54
2023/06/27 09:16:36;;;;;;;;;;;;;;;34.53;32.08;99489.22;5091332;28;1910;-55
2023/06/27 09:19:03;;;;;;;;;;;;;;;34.52;31.87;99481.19;5091545;28;779;-56
2023/06/27 09:21:32;;;;;;;;;;;;;;;34.02;31.56;99481.69;5091401;28;898;-54
2023/06/27 09:24:04;;;;;;;;;;;;;;;34.14;31.64;99479.19;5091433;28;818;-56
2023/06/27 09:26:31;;;;;;;;;;;;;;;34.09;30.99;99485.88;5091385;28;807;-55
2023/06/27 09:28:59;;;;;;;;;;;;;;;34.22;31.86;99476.31;5093378;28;904;-56
2023/06/27 09:31:26;;;;;;;;;;;;;;;34.16;30.65;99482.25;5095391;28;857;-55
2023/06/27 09:34:02;;;;;;;;;;;;;;;33.94;31.05;99480.91;5095317;28;864;-55
2023/06/27 09:36:33;;;;;;;;;;;;;;;33.53;31.47;99491.41;5095398;28;1941;-55
2023/06/27 09:39:06;;;;;;;;;;;;;;;33.56;31.99;99473.84;5077148;28;1258;-56
2023/06/27 10:12:34;;;;;;;;;;;;;;;31.28;34.27;99467.00;5393455;22;1666;-56
2023/06/27 10:15:02;;;;;;;;;;;;;;;31.82;34.56;99465.44;5055141;28;1914;-56
2023/06/27 10:17:29;;;;;;;;;;;;;;;32.17;34.38;99468.94;5054611;28;944;-55
2023/06/27 10:19:57;;;;;;;;;;;;;;;32.08;34.02;99469.44;5054502;28;909;-56
2023/06/27 10:22:26;;;;;;;;;;;;;;;31.97;33.40;99441.16;5054460;28;831;-56
2023/06/27 10:24:56;;;;;;;;;;;;;;;32.50;33.36;99461.50;5054121;28;873;-56
2023/06/27 10:27:25;;;;;;;;;;;;;;;32.95;33.25;99462.25;5054088;28;852;-56
2023/06/27 10:29:52;;;;;;;;;;;;;;;33.00;32.26;99458.44;5054052;28;814;-55
2023/06/27 10:32:19;;;;;;;;;;;;;;;33.04;32.74;99467.44;5054050;28;873;-56
2023/06/27 10:34:46;;;;;;;;;;;;;;;33.00;32.27;99454.84;5053837;28;859;-56
2023/06/27 10:37:16;;;;;;;;;;;;;;;32.94;32.23;99457.84;5053901;28;1945;-56
2023/06/27 10:39:54;;;;;;;;;;;;;;;33.03;32.47;99457.31;5052662;28;877;-55
2023/06/27 10:42:21;;;;;;;;;;;;;;;32.94;32.05;99455.00;5054115;28;889;-56
2023/06/27 10:44:57;;;;;;;;;;;;;;;33.08;31.76;99447.81;5054229;28;795;-56
2023/06/27 10:47:24;;;;;;;;;;;;;;;33.26;30.85;99443.06;5053729;28;945;-56
2023/06/27 10:49:52;;;;;;;;;;;;;;;33.59;30.40;99436.81;5053969;28;844;-56
2023/06/27 10:52:22;;;;;;;;;;;;;;;34.03;30.65;99434.47;5053643;28;846;-56
2023/06/27 10:55:21;;;;;;;;;;;;;;;34.16;29.62;99444.97;5053628;28;814;-57
2023/06/27 10:57:49;;;;;;;;;;;;;;;33.94;30.66;99435.81;5020314;28;1282;-56
2023/06/27 11:00:22;;;;;;;;;;;;;;;33.94;31.19;99430.09;5053293;28;855;-56
2023/06/27 11:02:49;;;;;;;;;;;;;;;33.48;31.74;99435.06;5053445;28;873;-56
2023/06/27 11:05:16;;;;;;;;;;;;;;;32.20;33.31;99432.72;5053348;28;893;-56
2023/06/27 11:07:53;;;;;;;;;;;;;;;30.77;33.94;99433.94;5053421;28;830;-56
2023/06/27 11:10:22;;;;;;;;;;;;;;;29.83;34.54;99426.75;5053438;28;807;-56
2023/06/27 11:12:49;;;;;;;;;;;;;;;29.26;33.63;99427.72;5053230;28;1419;-56
2023/06/27 11:15:18;;;;;;;;;;;;;;;29.89;33.99;99422.50;5053322;28;1917;-56
2023/06/27 11:17:46;;;;;;;;;;;;;;;31.49;32.85;99419.28;5053405;28;834;-56
2023/06/27 11:20:13;;;;;;;;;;;;;;;32.68;32.03;99413.16;5052961;28;914;-57
2023/06/27 11:22:38;;;;;;;;;;;;;;;33.53;31.12;99411.97;5053393;28;811;-56
2023/06/27 11:25:12;;;;;;;;;;;;;;;34.31;30.40;99410.53;5053056;28;843;-56
2023/06/27 11:27:39;;;;;;;;;;;;;;;35.00;30.54;99411.56;5053005;28;877;-56
2023/06/27 11:30:06;;;;;;;;;;;;;;;35.08;29.68;99401.53;5052956;28;846;-55
2023/06/27 11:32:33;;;;;;;;;;;;;;;35.23;29.22;99411.41;5052828;28;843;-55
2023/06/27 11:34:59;;;;;;;;;;;;;;;35.45;29.60;99407.59;5052788;28;881;-56
2023/06/27 11:37:26;;;;;;;;;;;;;;;35.46;28.57;99406.22;5052696;28;1878;-56
2023/06/27 11:40:07;;;;;;;;;;;;;;;35.67;28.42;99405.13;5052675;28;830;-56
2023/06/27 11:42:36;;;;;;;;;;;;;;;36.19;27.91;99399.44;5052802;28;894;-56
2023/06/27 11:45:10;;;;;;;;;;;;;;;36.58;26.83;99409.09;5052644;28;842;-56
2023/06/27 11:47:37;;;;;;;;;;;;;;;36.53;26.12;99392.88;5052543;28;810;-56
2023/06/27 11:50:06;;;;;;;;;;;;;;;36.13;26.71;99404.69;5052514;28;876;-56
2023/06/27 11:52:38;;;;;;;;;;;;;;;36.41;25.95;99394.75;5052075;28;822;-56
2023/06/27 11:55:05;;;;;;;;;;;;;;;36.39;25.54;99401.09;5052406;28;1941;-56
2023/06/27 11:57:42;;;;;;;;;;;;;;;37.02;24.50;99398.91;5052270;28;894;-58
2023/06/27 12:00:29;;;;;;;;;;;;;;;37.49;24.18;99393.97;5052353;28;818;-57
2023/06/27 12:02:57;;;;;;;;;;;;;;;37.71;23.65;99391.31;5052403;28;1153;-57
2023/06/27 12:05:24;;;;;;;;;;;;;;;38.20;23.90;99383.47;5052262;28;869;-57
2023/06/27 12:07:57;;;;;;;;;;;;;;;38.12;23.07;99377.84;5052301;28;797;-57
2023/06/27 12:10:24;;;;;;;;;;;;;;;38.16;22.89;99371.63;5052106;28;798;-57
2023/06/27 12:12:51;;;;;;;;;;;;;;;38.57;21.73;99371.75;5052017;28;1230;-57
2023/06/27 12:15:17;;;;;;;;;;;;;;;39.01;21.99;99373.47;5052009;28;1910;-57
2023/06/27 12:17:58;;;;;;;;;;;;;;;39.43;21.72;99374.94;5051907;28;866;-57
2023/06/27 12:20:26;;;;;;;;;;;;;;;40.00;21.59;99367.25;5052223;28;838;-57
2023/06/27 12:22:52;;;;;;;;;;;;;;;40.17;21.29;99369.06;5052010;28;819;-58
2023/06/27 12:25:19;;;;;;;;;;;;;;;40.14;21.57;99363.78;5051871;28;913;-57
2023/06/27 12:27:46;;;;;;;;;;;;;;;39.50;22.51;99356.66;5034020;28;1294;-57
2023/06/27 12:30:13;;;;;;;;;;;;;;;39.23;22.51;99353.28;5051780;28;854;-57
2023/06/27 12:32:40;;;;;;;;;;;;;;;38.98;22.45;99349.44;5051960;28;855;-57
2023/06/27 12:35:07;;;;;;;;;;;;;;;38.65;22.55;99348.47;5051888;28;1953;-57
2023/06/27 12:37:34;;;;;;;;;;;;;;;38.94;22.19;99349.13;5051789;28;919;-57
2023/06/27 12:40:01;;;;;;;;;;;;;;;39.20;22.06;99341.59;5051604;28;807;-57
2023/06/27 12:42:28;;;;;;;;;;;;;;;37.57;22.27;99339.09;5051613;28;858;-57
2023/06/27 12:44:55;;;;;;;;;;;;;;;37.77;22.48;99342.75;5033806;28;886;-57
2023/06/27 12:47:23;;;;;;;;;;;;;;;39.04;22.15;99343.31;5051599;28;865;-57
2023/06/27 12:49:50;;;;;;;;;;;;;;;38.95;22.50;99333.34;5051345;28;930;-57
2023/06/27 12:52:16;;;;;;;;;;;;;;;37.15;24.28;99345.94;5051592;28;814;-57
2023/06/27 12:54:43;;;;;;;;;;;;;;;35.66;25.69;99349.00;5051534;28;811;-56
2023/06/27 12:57:09;;;;;;;;;;;;;;;35.00;26.26;99352.03;5051543;28;1945;-56
2023/06/27 12:59:36;;;;;;;;;;;;;;;35.36;26.45;99347.94;5051529;28;917;-56
2023/06/27 13:02:03;;;;;;;;;;;;;;;36.71;26.28;99344.66;5051242;28;870;-56
2023/06/27 13:04:32;;;;;;;;;;;;;;;36.41;25.99;99345.09;5050734;28;874;-56
2023/06/27 13:06:59;;;;;;;;;;;;;;;36.07;26.58;99341.63;5051362;28;826;-56
2023/06/27 13:09:26;;;;;;;;;;;;;;;35.99;26.33;99338.09;5051270;28;814;-56
2023/06/27 13:11:54;;;;;;;;;;;;;;;34.94;27.42;99337.13;5051250;28;1218;-57
2023/06/27 13:14:22;;;;;;;;;;;;;;;33.61;28.70;99336.72;5051632;28;858;-56
2023/06/27 13:16:50;;;;;;;;;;;;;;;32.88;30.41;99343.59;5051244;28;1963;-56
2023/06/27 13:19:18;;;;;;;;;;;;;;;32.77;30.15;99340.31;5051282;28;830;-56
2023/06/27 13:21:44;;;;;;;;;;;;;;;32.86;31.21;99334.81;5051184;28;881;-56
2023/06/27 13:24:11;;;;;;;;;;;;;;;33.10;32.01;99341.34;5051219;28;844;-56
2023/06/27 13:26:38;;;;;;;;;;;;;;;33.22;31.78;99331.00;5051224;28;834;-56
2023/06/27 13:29:07;;;;;;;;;;;;;;;33.35;32.28;99338.63;5051270;28;908;-56
2023/06/27 13:31:34;;;;;;;;;;;;;;;32.75;32.56;99344.53;5051166;28;795;-56
2023/06/27 13:34:03;;;;;;;;;;;;;;;32.20;33.52;99336.31;5051130;28;834;-56